Terminal Aerodrome Forecast
Issued by NWS Wilmington, OH

Home | Current Version | Previous Version | Text Only | Print | Product List | Glossary On
Versions: 1 2 3 4 5 6 7 8 9 10 11 12 13 14 15 16 17 18
000
FTUS41 KILN 261900 AAA
TAFCMH
TAF AMD
KCMH 261928Z 2619/2718 22011G19KT P6SM BKN040
     FM262000 22012G25KT P6SM VCTS BKN035CB
      TEMPO 2620/2622 4SM TSRA BR BKN030CB
     FM262300 22008KT P6SM BKN040 OVC200
     FM270500 21007KT 3SM -SHRA VCTS BKN040CB OVC150
      TEMPO 2705/2709 2SM -TSRA OVC020CB
     FM271000 20007KT P6SM VCSH SCT035 OVC080
     FM271600 21011G19KT P6SM -SHRA VCTS BKN035CB=

USA.gov is the U.S. government's official web portal to all federal, state and local government web resources and services.